Search for airport 
image banner adimage banner adimage banner ad
image banner ad

5CA0 - Dreamworks Helistop Glendale

Located in Glendale, United States

ICAO - 5CA0, IATA -

Data provided by Airmate  

General information

Coordinates: N34°9'30" W118°17'9"
Elevation is 513 feet MSL.
Magnetic variation is 14° East
View others Airports in California

Operational data

Special qualification required
Current time UTC:
Current local time:
Weather at : KBUR - Bob Hope ( 8 km )
METAR: KBUR 211253Z 17005KT 2SM BR OVC006 16/14 A2996 RMK AO2 SLP133 T01610139 $
TAF: KBUR 211252Z 2113/2212 17005KT 3SM BR OVC006 FM211530 14008KT P6SM SKC FM212100 18011KT P6SM SKC FM220300 14008KT P6SM SKC FM221100 VRB03KT P6SM OVC008
View NOTAMs / SUP AIP / TFR affecting this airport [VIEW]
Communications frequencies: [VIEW]

Runways:

Airport contact information

Address: Glendale United States

Satellite view of 5CA0